Time;durP1;ratioP1;P1;durP2;ratioP2;P2;SDS_P1;SDS_P2;PMS_P1;PMS_P2;Temp;Humidity;BMP_temperature;BMP_pressure;BME280_temperature;BME280_humidity;BME280_pressure;Samples;Min_cycle;Max_cycle;Signal;HPM_P1;HPM_P2
2021/07/29 00:01:28;;;;;;;5.65;2.83;;;;;;;;;;5071796;28;20052;-52
2021/07/29 00:03:54;;;;;;;4.65;3.15;;;;;;;;;;5072486;28;20035;-52
2021/07/29 00:06:20;;;;;;;8.65;3.58;;;;;;;;;;5072473;28;20017;-52
2021/07/29 00:08:45;;;;;;;5.22;3.38;;;;;;;;;;5072752;28;20017;-52
2021/07/29 00:11:12;;;;;;;6.05;2.97;;;;;;;;;;5071715;28;20335;-52
2021/07/29 00:13:38;;;;;;;6.45;2.97;;;;;;;;;;5073014;28;20025;-52
2021/07/29 00:16:05;;;;;;;5.70;3.15;;;;;;;;;;5072208;28;20036;-52
2021/07/29 00:21:16;;;;;;;5.05;3.30;;;;;;;;;;5071596;28;20040;-52
2021/07/29 00:23:42;;;;;;;5.53;2.92;;;;;;;;;;5072428;28;20056;-52
2021/07/29 00:26:09;;;;;;;7.78;3.30;;;;;;;;;;5072333;28;20098;-52
2021/07/29 00:28:36;;;;;;;4.95;2.72;;;;;;;;;;5072552;28;20169;-52
2021/07/29 00:31:02;;;;;;;5.35;3.00;;;;;;;;;;5071280;28;20078;-52
2021/07/29 00:33:28;;;;;;;5.03;3.25;;;;;;;;;;5072109;28;20029;-52
2021/07/29 00:35:53;;;;;;;6.78;3.58;;;;;;;;;;5072083;28;20040;-52
2021/07/29 00:38:19;;;;;;;5.15;3.03;;;;;;;;;;5072367;28;20368;-52
2021/07/29 00:40:45;;;;;;;5.32;3.10;;;;;;;;;;5071549;28;20107;-52
2021/07/29 00:43:14;;;;;;;6.38;3.20;;;;;;;;;;5072611;28;20070;-52
2021/07/29 00:45:41;;;;;;;5.78;3.40;;;;;;;;;;5072174;28;20025;-53
2021/07/29 00:48:07;;;;;;;6.10;3.92;;;;;;;;;;5072018;28;20020;-52
2021/07/29 00:50:33;;;;;;;4.95;3.38;;;;;;;;;;5072173;28;20024;-52
2021/07/29 00:52:59;;;;;;;5.97;3.28;;;;;;;;;;5072286;28;20020;-52
2021/07/29 00:55:25;;;;;;;5.28;2.75;;;;;;;;;;5072136;28;20051;-52
2021/07/29 00:57:51;;;;;;;5.88;3.20;;;;;;;;;;5071675;28;20020;-52
2021/07/29 01:00:17;;;;;;;5.75;3.13;;;;;;;;;;5072168;28;20017;-52
2021/07/29 01:02:43;;;;;;;7.97;4.28;;;;;;;;;;5072675;28;20129;-52
2021/07/29 01:05:10;;;;;;;4.90;3.50;;;;;;;;;;5075804;28;20391;-52
2021/07/29 01:07:36;;;;;;;6.55;3.00;;;;;;;;;;5075172;28;20464;-52
2021/07/29 01:10:02;;;;;;;6.95;3.63;;;;;;;;;;5075797;28;20020;-52
2021/07/29 01:12:28;;;;;;;6.55;3.40;;;;;;;;;;5074980;28;20041;-52
2021/07/29 01:14:54;;;;;;;6.15;3.80;;;;;;;;;;5074821;28;20419;-52
2021/07/29 01:17:20;;;;;;;5.93;3.75;;;;;;;;;;5075392;28;20353;-52
2021/07/29 01:19:46;;;;;;;7.50;3.80;;;;;;;;;;5075609;28;20442;-52
2021/07/29 01:22:12;;;;;;;5.57;3.28;;;;;;;;;;5074282;28;20124;-52
2021/07/29 01:24:38;;;;;;;5.95;3.20;;;;;;;;;;5075108;28;20021;-52
2021/07/29 01:27:04;;;;;;;5.45;3.30;;;;;;;;;;5075506;28;20119;-52
2021/07/29 01:29:30;;;;;;;5.28;3.10;;;;;;;;;;5075203;28;20016;-52
2021/07/29 01:31:56;;;;;;;6.65;3.03;;;;;;;;;;5074066;28;20024;-52
2021/07/29 01:34:22;;;;;;;7.18;3.53;;;;;;;;;;5074721;28;20422;-52
2021/07/29 01:36:48;;;;;;;5.60;3.25;;;;;;;;;;5075162;28;20115;-52
2021/07/29 01:39:14;;;;;;;8.18;3.13;;;;;;;;;;5075123;28;20048;-52
2021/07/29 01:41:41;;;;;;;5.70;3.47;;;;;;;;;;5073796;28;20024;-52
2021/07/29 01:44:07;;;;;;;4.78;3.17;;;;;;;;;;5074266;28;20438;-52
2021/07/29 01:46:33;;;;;;;5.20;3.47;;;;;;;;;;5074902;28;20027;-52
2021/07/29 01:48:59;;;;;;;6.85;3.50;;;;;;;;;;5074620;28;20109;-52
2021/07/29 01:51:24;;;;;;;6.05;3.65;;;;;;;;;;5074119;28;20032;-52
2021/07/29 01:53:50;;;;;;;8.18;3.95;;;;;;;;;;5074486;28;20354;-52
2021/07/29 01:56:20;;;;;;;5.07;3.25;;;;;;;;;;5074603;28;20040;-52
2021/07/29 01:58:46;;;;;;;5.65;3.13;;;;;;;;;;5074156;28;20052;-52
2021/07/29 02:01:19;;;;;;;5.65;2.95;;;;;;;;;;5073588;28;20071;-52
2021/07/29 02:03:45;;;;;;;7.18;3.55;;;;;;;;;;5074301;28;20025;-52
2021/07/29 02:06:11;;;;;;;5.40;3.28;;;;;;;;;;5074046;28;20437;-52
2021/07/29 02:08:37;;;;;;;9.52;3.38;;;;;;;;;;5067239;28;20027;-52
2021/07/29 02:11:03;;;;;;;6.45;3.00;;;;;;;;;;5073763;28;20048;-52
2021/07/29 02:13:29;;;;;;;7.45;4.13;;;;;;;;;;5073744;28;20020;-52
2021/07/29 02:15:55;;;;;;;4.53;3.10;;;;;;;;;;5074517;28;20433;-52
2021/07/29 02:18:21;;;;;;;5.38;2.90;;;;;;;;;;5074096;28;20016;-52
2021/07/29 02:20:47;;;;;;;7.78;3.20;;;;;;;;;;5073479;28;20500;-52
2021/07/29 02:23:13;;;;;;;5.38;3.47;;;;;;;;;;5073937;28;20408;-52
2021/07/29 02:25:40;;;;;;;13.20;3.17;;;;;;;;;;5073894;28;20035;-52
2021/07/29 02:28:06;;;;;;;6.65;3.17;;;;;;;;;;5074089;28;20021;-52
2021/07/29 02:30:32;;;;;;;4.25;2.92;;;;;;;;;;5073349;28;20036;-52
2021/07/29 02:32:58;;;;;;;7.05;2.88;;;;;;;;;;5073577;28;20383;-52
2021/07/29 02:35:24;;;;;;;6.97;3.20;;;;;;;;;;5073924;28;20117;-52
2021/07/29 02:37:50;;;;;;;5.30;3.08;;;;;;;;;;5073627;28;20025;-52
2021/07/29 02:40:16;;;;;;;5.65;3.15;;;;;;;;;;5073822;28;20029;-52
2021/07/29 02:42:42;;;;;;;5.03;3.03;;;;;;;;;;5073089;28;20028;-52
2021/07/29 02:45:08;;;;;;;4.07;2.22;;;;;;;;;;5073579;28;20442;-52
2021/07/29 02:47:34;;;;;;;5.10;3.05;;;;;;;;;;5073402;28;20070;-52
2021/07/29 02:50:00;;;;;;;4.72;2.50;;;;;;;;;;5080827;28;20016;-51
2021/07/29 02:52:26;;;;;;;4.13;2.67;;;;;;;;;;5093061;28;20426;-52
2021/07/29 02:54:52;;;;;;;3.28;2.63;;;;;;;;;;5093383;28;20038;-52
2021/07/29 02:57:18;;;;;;;7.60;2.70;;;;;;;;;;5093378;28;20024;-52
2021/07/29 02:59:44;;;;;;;6.40;3.15;;;;;;;;;;5093104;28;20110;-52
2021/07/29 03:02:10;;;;;;;10.50;3.63;;;;;;;;;;5092798;28;20095;-52
2021/07/29 03:04:36;;;;;;;9.85;3.30;;;;;;;;;;5093618;28;20115;-52
2021/07/29 03:07:02;;;;;;;3.75;2.70;;;;;;;;;;5093588;28;20020;-52
2021/07/29 03:09:28;;;;;;;5.72;2.58;;;;;;;;;;5093056;28;20032;-52
2021/07/29 03:11:54;;;;;;;3.63;2.45;;;;;;;;;;5093220;28;20077;-52
2021/07/29 03:14:20;;;;;;;7.55;2.70;;;;;;;;;;5093018;28;20032;-52
2021/07/29 03:16:46;;;;;;;9.90;2.88;;;;;;;;;;5093417;28;20024;-52
2021/07/29 03:19:12;;;;;;;4.88;2.80;;;;;;;;;;5093626;28;20161;-52
2021/07/29 03:21:38;;;;;;;5.05;2.78;;;;;;;;;;5092692;28;20035;-52
2021/07/29 03:24:05;;;;;;;6.15;3.15;;;;;;;;;;5092763;28;20024;-52
2021/07/29 03:26:30;;;;;;;4.65;2.90;;;;;;;;;;5092232;28;20047;-52
2021/07/29 03:28:56;;;;;;;8.25;3.20;;;;;;;;;;5093140;28;20031;-52
2021/07/29 03:31:22;;;;;;;7.40;3.05;;;;;;;;;;5092715;28;20586;-52
2021/07/29 03:33:48;;;;;;;6.47;3.05;;;;;;;;;;5093106;28;20032;-52
2021/07/29 03:36:14;;;;;;;5.50;2.67;;;;;;;;;;5073680;28;20365;-52
2021/07/29 03:38:40;;;;;;;6.10;3.03;;;;;;;;;;5072748;28;20104;-52
2021/07/29 03:41:10;;;;;;;7.75;3.35;;;;;;;;;;5072357;28;20052;-52
2021/07/29 03:43:36;;;;;;;5.43;2.83;;;;;;;;;;5073328;28;20020;-52
2021/07/29 03:46:02;;;;;;;7.07;3.67;;;;;;;;;;5072774;28;20335;-52
2021/07/29 03:48:28;;;;;;;7.75;3.78;;;;;;;;;;5072732;28;20052;-53
2021/07/29 03:50:54;;;;;;;9.27;4.13;;;;;;;;;;5071940;28;20060;-52
2021/07/29 03:53:20;;;;;;;7.07;3.92;;;;;;;;;;5072432;28;20415;-52
2021/07/29 03:55:46;;;;;;;9.23;3.75;;;;;;;;;;5072353;28;20040;-52
2021/07/29 03:58:12;;;;;;;7.00;3.67;;;;;;;;;;5073240;28;20021;-52
2021/07/29 04:00:38;;;;;;;6.88;3.92;;;;;;;;;;5071862;28;20047;-52
2021/07/29 04:03:07;;;;;;;12.10;3.70;;;;;;;;;;5072851;28;20024;-52
2021/07/29 04:05:33;;;;;;;10.63;4.35;;;;;;;;;;5075057;28;20031;-52
2021/07/29 04:07:59;;;;;;;7.25;4.10;;;;;;;;;;5093039;28;20028;-52
2021/07/29 04:10:25;;;;;;;6.43;3.90;;;;;;;;;;5092614;28;20439;-52
2021/07/29 04:12:51;;;;;;;6.70;4.13;;;;;;;;;;5092118;28;20035;-52
2021/07/29 04:15:17;;;;;;;9.52;3.97;;;;;;;;;;5092317;28;20036;-52
2021/07/29 04:17:43;;;;;;;8.18;3.95;;;;;;;;;;5092607;28;20020;-52
2021/07/29 04:20:09;;;;;;;6.70;3.70;;;;;;;;;;5092533;28;20035;-52
2021/07/29 04:22:35;;;;;;;11.57;4.18;;;;;;;;;;5091627;28;20036;-52
2021/07/29 04:25:01;;;;;;;9.23;3.45;;;;;;;;;;5092621;28;20024;-53
2021/07/29 04:27:27;;;;;;;6.85;4.43;;;;;;;;;;5092195;28;20032;-52
2021/07/29 04:29:53;;;;;;;6.50;4.30;;;;;;;;;;5092594;28;20173;-52
2021/07/29 04:32:23;;;;;;;11.68;4.07;;;;;;;;;;5091812;28;20354;-52
2021/07/29 04:34:49;;;;;;;6.28;4.03;;;;;;;;;;5085213;28;20056;-52
2021/07/29 04:37:15;;;;;;;7.50;3.88;;;;;;;;;;5074719;28;20028;-52
2021/07/29 04:39:42;;;;;;;16.38;4.35;;;;;;;;;;5080734;28;20392;-52
2021/07/29 04:42:12;;;;;;;8.23;3.70;;;;;;;;;;5088144;28;20067;-52
2021/07/29 04:44:39;;;;;;;10.90;4.43;;;;;;;;;;5090085;28;20448;-52
2021/07/29 04:47:05;;;;;;;7.10;4.07;;;;;;;;;;5095870;28;20131;-52
2021/07/29 04:49:31;;;;;;;9.15;3.90;;;;;;;;;;5096713;28;20077;-53
2021/07/29 04:51:57;;;;;;;6.55;3.38;;;;;;;;;;5095490;28;20024;-52
2021/07/29 04:54:23;;;;;;;6.20;4.13;;;;;;;;;;5095901;28;20028;-52
2021/07/29 04:56:49;;;;;;;9.63;4.60;;;;;;;;;;5096252;28;20404;-52
2021/07/29 04:59:15;;;;;;;14.20;4.70;;;;;;;;;;5095984;28;20026;-52
2021/07/29 05:01:42;;;;;;;13.13;4.93;;;;;;;;;;5094915;28;20028;-52
2021/07/29 05:04:10;;;;;;;9.95;4.03;;;;;;;;;;5086808;28;20108;-52
2021/07/29 05:06:36;;;;;;;9.07;4.75;;;;;;;;;;5091250;28;20114;-52
2021/07/29 05:09:03;;;;;;;9.27;3.90;;;;;;;;;;5095399;28;20453;-52
2021/07/29 05:11:29;;;;;;;8.45;3.72;;;;;;;;;;5095074;28;20020;-52
2021/07/29 05:13:55;;;;;;;10.57;5.03;;;;;;;;;;5095714;28;20020;-52
2021/07/29 05:16:21;;;;;;;10.50;5.28;;;;;;;;;;5095123;28;20032;-52
2021/07/29 05:18:47;;;;;;;12.25;4.80;;;;;;;;;;5094169;28;20365;-52
2021/07/29 05:21:13;;;;;;;8.45;4.95;;;;;;;;;;5085336;28;20031;-52
2021/07/29 05:23:39;;;;;;;12.40;5.35;;;;;;;;;;5090053;28;20020;-52
2021/07/29 05:26:05;;;;;;;8.60;4.20;;;;;;;;;;5090759;28;20020;-52
2021/07/29 05:28:31;;;;;;;9.98;4.80;;;;;;;;;;5093508;28;20100;-52
2021/07/29 05:30:58;;;;;;;7.22;4.38;;;;;;;;;;5089084;28;20349;-52
2021/07/29 05:33:24;;;;;;;9.75;4.10;;;;;;;;;;5086097;28;20032;-52
2021/07/29 05:35:50;;;;;;;12.07;4.65;;;;;;;;;;5085776;28;20043;-52
2021/07/29 05:38:16;;;;;;;8.25;4.28;;;;;;;;;;5083798;28;20091;-52
2021/07/29 05:40:42;;;;;;;8.18;4.13;;;;;;;;;;5094594;28;20020;-52
2021/07/29 05:43:08;;;;;;;7.63;4.25;;;;;;;;;;5095635;28;20464;-52
2021/07/29 05:45:34;;;;;;;6.40;4.10;;;;;;;;;;5095122;28;20020;-52
2021/07/29 05:48:00;;;;;;;10.60;4.07;;;;;;;;;;5094191;28;20028;-53
2021/07/29 05:50:26;;;;;;;9.18;4.20;;;;;;;;;;5094904;28;20418;-52
2021/07/29 05:52:52;;;;;;;13.55;3.90;;;;;;;;;;5093722;28;20109;-52
2021/07/29 05:55:18;;;;;;;7.00;3.55;;;;;;;;;;5094995;28;20036;-52
2021/07/29 05:57:44;;;;;;;9.00;3.85;;;;;;;;;;5094992;28;20507;-53
2021/07/29 06:00:10;;;;;;;7.70;3.50;;;;;;;;;;5094931;28;20024;-53
2021/07/29 06:02:36;;;;;;;9.60;3.78;;;;;;;;;;5093948;28;20103;-52
2021/07/29 06:05:03;;;;;;;8.50;3.97;;;;;;;;;;5094445;28;20327;-52
2021/07/29 06:07:29;;;;;;;7.72;3.55;;;;;;;;;;5094769;28;20311;-52
2021/07/29 06:09:55;;;;;;;9.13;4.80;;;;;;;;;;5094862;28;20024;-52
2021/07/29 06:12:24;;;;;;;7.13;4.10;;;;;;;;;;5093907;28;20020;-53
2021/07/29 06:14:54;;;;;;;11.47;5.43;;;;;;;;;;5094468;28;20035;-52
2021/07/29 06:17:27;;;;;;;9.75;4.72;;;;;;;;;;5094600;28;20251;-52
2021/07/29 06:19:53;;;;;;;9.73;4.40;;;;;;;;;;5094185;28;20027;-52
2021/07/29 06:22:19;;;;;;;7.30;3.65;;;;;;;;;;5093625;28;20456;-52
2021/07/29 06:24:45;;;;;;;7.03;3.90;;;;;;;;;;5094347;28;20094;-52
2021/07/29 06:27:11;;;;;;;15.23;4.60;;;;;;;;;;5094509;28;20128;-52
2021/07/29 06:29:37;;;;;;;10.20;4.75;;;;;;;;;;5088906;28;20418;-52
2021/07/29 06:32:04;;;;;;;10.65;4.60;;;;;;;;;;5083126;28;20021;-52
2021/07/29 06:34:29;;;;;;;19.80;5.22;;;;;;;;;;5081923;28;20024;-52
2021/07/29 06:36:55;;;;;;;7.07;4.10;;;;;;;;;;5082877;28;20032;-52
2021/07/29 06:39:21;;;;;;;9.32;4.68;;;;;;;;;;5083533;28;20047;-52
2021/07/29 06:41:47;;;;;;;12.70;4.00;;;;;;;;;;5083159;28;20404;-53
2021/07/29 06:44:13;;;;;;;8.50;3.65;;;;;;;;;;5082222;28;20017;-52
2021/07/29 06:46:39;;;;;;;6.35;4.00;;;;;;;;;;5093960;28;20349;-53
2021/07/29 06:49:06;;;;;;;6.40;3.42;;;;;;;;;;5093797;28;20082;-53
2021/07/29 06:51:32;;;;;;;7.78;3.97;;;;;;;;;;5092959;28;20396;-52
2021/07/29 06:53:59;;;;;;;9.50;4.60;;;;;;;;;;5093719;28;20016;-52
2021/07/29 06:56:25;;;;;;;7.55;3.97;;;;;;;;;;5093607;28;20046;-52
2021/07/29 06:58:51;;;;;;;6.70;3.95;;;;;;;;;;5093856;28;20029;-53
2021/07/29 07:01:17;;;;;;;10.57;4.80;;;;;;;;;;5092923;28;20026;-53
2021/07/29 07:03:45;;;;;;;7.13;4.55;;;;;;;;;;5093427;28;20024;-53
2021/07/29 07:06:11;;;;;;;9.32;4.63;;;;;;;;;;5093942;28;20070;-53
2021/07/29 07:08:37;;;;;;;13.35;5.07;;;;;;;;;;5093589;28;20408;-52
2021/07/29 07:11:03;;;;;;;8.98;4.30;;;;;;;;;;5092516;28;20032;-52
2021/07/29 07:13:29;;;;;;;10.65;3.90;;;;;;;;;;5093612;28;20048;-52
2021/07/29 07:15:55;;;;;;;9.48;4.63;;;;;;;;;;5093067;28;20036;-53
2021/07/29 07:18:21;;;;;;;8.55;4.03;;;;;;;;;;5093109;28;20058;-52
2021/07/29 07:20:47;;;;;;;6.18;3.95;;;;;;;;;;5092733;28;20051;-53
2021/07/29 07:23:13;;;;;;;6.20;3.50;;;;;;;;;;5093094;28;20028;-53
2021/07/29 07:25:39;;;;;;;7.07;3.65;;;;;;;;;;5091971;28;20077;-52
2021/07/29 07:28:05;;;;;;;7.00;3.67;;;;;;;;;;5072659;28;20111;-52
2021/07/29 07:30:32;;;;;;;7.82;4.03;;;;;;;;;;5072637;28;20103;-52
2021/07/29 07:32:58;;;;;;;4.90;2.97;;;;;;;;;;5072683;28;20036;-52
2021/07/29 07:35:24;;;;;;;7.10;4.07;;;;;;;;;;5072975;28;20086;-52
2021/07/29 07:37:52;;;;;;;3.90;2.75;;;;;;;;;;5072833;28;20027;-53
2021/07/29 07:40:18;;;;;;;8.50;3.80;;;;;;;;;;5072829;28;20016;-52
2021/07/29 07:42:45;;;;;;;5.93;3.22;;;;;;;;;;5072163;28;20024;-52
2021/07/29 07:45:11;;;;;;;6.05;3.33;;;;;;;;;;5071978;28;20028;-54
2021/07/29 07:47:37;;;;;;;22.92;3.47;;;;;;;;;;5072905;28;20026;-54
2021/07/29 07:50:04;;;;;;;13.57;2.53;;;;;;;;;;5072034;28;20500;-53
2021/07/29 07:52:30;;;;;;;15.48;4.20;;;;;;;;;;5071377;28;20082;-53
2021/07/29 07:54:57;;;;;;;5.05;2.47;;;;;;;;;;5072509;28;20028;-54
2021/07/29 07:57:23;;;;;;;9.32;2.95;;;;;;;;;;5072739;28;20029;-54
2021/07/29 07:59:54;;;;;;;3.58;1.63;;;;;;;;;;5072450;28;20020;-53
2021/07/29 08:02:20;;;;;;;4.97;2.50;;;;;;;;;;5071574;28;20032;-53
2021/07/29 08:04:46;;;;;;;3.25;1.88;;;;;;;;;;5072429;28;20023;-53
2021/07/29 08:07:12;;;;;;;3.22;2.35;;;;;;;;;;5072291;28;20028;-53
2021/07/29 08:09:38;;;;;;;4.15;1.92;;;;;;;;;;5073137;28;20031;-53
2021/07/29 08:12:04;;;;;;;5.80;2.63;;;;;;;;;;5083329;28;20032;-53
2021/07/29 08:14:30;;;;;;;2.28;1.80;;;;;;;;;;5091901;28;20031;-53
2021/07/29 08:16:56;;;;;;;4.68;2.38;;;;;;;;;;5093726;28;20020;-53
2021/07/29 08:19:25;;;;;;;4.43;2.15;;;;;;;;;;5092736;28;20020;-53
2021/07/29 08:21:51;;;;;;;4.32;2.78;;;;;;;;;;5094372;28;20093;-53
2021/07/29 08:24:17;;;;;;;3.00;1.90;;;;;;;;;;5096814;28;20115;-54
2021/07/29 08:26:44;;;;;;;3.22;2.15;;;;;;;;;;5096268;28;20031;-54
2021/07/29 08:29:10;;;;;;;8.10;2.95;;;;;;;;;;5096163;28;20038;-54
2021/07/29 08:31:36;;;;;;;5.18;2.45;;;;;;;;;;5092212;28;20029;-53
2021/07/29 08:34:02;;;;;;;2.97;1.92;;;;;;;;;;5090371;28;20357;-54
2021/07/29 08:36:28;;;;;;;4.90;2.10;;;;;;;;;;5087502;28;20032;-54
2021/07/29 08:38:54;;;;;;;6.00;2.20;;;;;;;;;;5087903;28;20024;-54
2021/07/29 08:41:20;;;;;;;3.28;2.20;;;;;;;;;;5088855;28;20078;-53
2021/07/29 08:43:47;;;;;;;3.47;2.70;;;;;;;;;;5092907;28;20024;-54
2021/07/29 08:46:17;;;;;;;3.55;2.08;;;;;;;;;;5085599;28;20024;-54
2021/07/29 08:48:44;;;;;;;3.10;1.88;;;;;;;;;;5095606;28;20415;-54
2021/07/29 08:51:10;;;;;;;5.43;2.00;;;;;;;;;;5094347;28;20048;-53
2021/07/29 08:53:36;;;;;;;4.80;2.65;;;;;;;;;;5095228;28;20353;-54
2021/07/29 08:56:02;;;;;;;4.32;2.63;;;;;;;;;;5095285;28;20032;-53
2021/07/29 08:58:28;;;;;;;6.68;3.10;;;;;;;;;;5081517;28;20097;-54
2021/07/29 09:01:05;;;;;;;6.25;3.03;;;;;;;;;;5083735;28;20438;-54
2021/07/29 09:03:31;;;;;;;4.60;2.35;;;;;;;;;;5094980;28;20067;-53
2021/07/29 09:06:00;;;;;;;3.80;2.50;;;;;;;;;;5084507;28;20023;-53
2021/07/29 09:08:27;;;;;;;5.15;1.98;;;;;;;;;;5095428;28;20069;-54
2021/07/29 09:10:54;;;;;;;3.97;2.40;;;;;;;;;;5091396;28;20035;-53
2021/07/29 09:13:20;;;;;;;4.30;2.33;;;;;;;;;;5095137;28;20361;-54
2021/07/29 09:15:47;;;;;;;2.97;1.85;;;;;;;;;;5087622;28;20039;-54
2021/07/29 09:18:19;;;;;;;4.18;2.38;;;;;;;;;;5094882;28;20027;-54
2021/07/29 09:20:45;;;;;;;3.95;2.33;;;;;;;;;;5091224;28;20026;-54
2021/07/29 09:23:21;;;;;;;2.30;1.42;;;;;;;;;;5092975;28;20032;-54
2021/07/29 09:25:59;;;;;;;3.25;2.05;;;;;;;;;;5095227;28;20028;-54
2021/07/29 09:28:35;;;;;;;3.85;2.25;;;;;;;;;;5095688;28;20041;-54
2021/07/29 09:31:21;;;;;;;3.15;1.95;;;;;;;;;;5089581;28;20028;-54
2021/07/29 09:33:54;;;;;;;2.90;1.50;;;;;;;;;;5087545;28;20024;-54
2021/07/29 09:36:20;;;;;;;3.22;2.10;;;;;;;;;;5092677;28;20453;-54
2021/07/29 09:38:46;;;;;;;3.20;1.95;;;;;;;;;;5094905;28;20157;-54
2021/07/29 09:41:23;;;;;;;2.55;1.50;;;;;;;;;;5089774;28;20035;-54
2021/07/29 09:43:50;;;;;;;4.95;2.03;;;;;;;;;;5091759;28;20111;-54
2021/07/29 09:46:17;;;;;;;3.90;1.85;;;;;;;;;;5093469;28;20028;-54
2021/07/29 09:48:43;;;;;;;4.95;1.85;;;;;;;;;;5089836;28;20028;-54
2021/07/29 09:51:10;;;;;;;3.67;2.15;;;;;;;;;;5088623;28;20066;-54
2021/07/29 09:53:36;;;;;;;1.67;1.42;;;;;;;;;;5086740;28;20020;-54
2021/07/29 09:56:12;;;;;;;5.38;2.22;;;;;;;;;;5090760;28;20123;-54
2021/07/29 09:58:42;;;;;;;3.20;1.80;;;;;;;;;;5086667;28;20245;-53
2021/07/29 10:01:08;;;;;;;2.22;1.90;;;;;;;;;;5093990;28;20028;-54
2021/07/29 10:03:35;;;;;;;3.05;2.17;;;;;;;;;;5094711;28;20060;-54
2021/07/29 10:06:12;;;;;;;4.68;1.83;;;;;;;;;;5090064;28;20488;-53
2021/07/29 10:08:44;;;;;;;8.60;1.83;;;;;;;;;;5084919;28;20016;-53
2021/07/29 10:11:15;;;;;;;3.40;1.83;;;;;;;;;;5090811;28;20016;-54
2021/07/29 10:13:41;;;;;;;2.72;1.80;;;;;;;;;;5094329;28;20107;-54
2021/07/29 10:16:15;;;;;;;4.35;1.80;;;;;;;;;;5094098;28;20036;-53
2021/07/29 10:19:03;;;;;;;4.93;2.03;;;;;;;;;;5086024;28;20023;-54
2021/07/29 10:21:30;;;;;;;2.50;1.60;;;;;;;;;;5086949;28;20032;-54
2021/07/29 10:23:57;;;;;;;9.40;2.38;;;;;;;;;;5085593;28;20433;-54
2021/07/29 10:26:24;;;;;;;3.97;2.35;;;;;;;;;;5092730;28;20528;-54
2021/07/29 10:28:50;;;;;;;2.72;1.80;;;;;;;;;;5088241;28;20399;-53
2021/07/29 10:31:17;;;;;;;2.90;1.80;;;;;;;;;;5084809;28;20438;-54
2021/07/29 10:33:44;;;;;;;3.03;1.65;;;;;;;;;;5093285;28;20074;-54
2021/07/29 10:36:40;;;;;;;3.13;1.90;;;;;;;;;;5075043;28;20533;-54
2021/07/29 10:39:06;;;;;;;2.90;1.88;;;;;;;;;;5068647;28;20029;-54
2021/07/29 10:41:35;;;;;;;3.17;2.15;;;;;;;;;;5073409;28;20027;-55
2021/07/29 10:44:05;;;;;;;4.05;2.78;;;;;;;;;;5093274;28;20689;-54
2021/07/29 10:46:50;;;;;;;7.55;1.92;;;;;;;;;;5092587;28;20035;-54
2021/07/29 10:49:16;;;;;;;4.80;1.73;;;;;;;;;;5087654;28;20046;-54
2021/07/29 10:52:01;;;;;;;3.10;2.47;;;;;;;;;;5092661;28;20434;-54
2021/07/29 10:54:27;;;;;;;3.88;1.92;;;;;;;;;;5093335;28;20028;-54
2021/07/29 10:56:53;;;;;;;4.47;2.50;;;;;;;;;;5083444;28;20033;-54
2021/07/29 10:59:19;;;;;;;7.00;2.33;;;;;;;;;;5081417;28;20024;-54
2021/07/29 11:01:46;;;;;;;5.30;2.20;;;;;;;;;;5079684;28;20027;-54
2021/07/29 11:04:13;;;;;;;4.25;1.75;;;;;;;;;;5080248;28;20028;-54
2021/07/29 11:06:54;;;;;;;2.92;1.90;;;;;;;;;;5081167;28;20081;-54
2021/07/29 11:09:21;;;;;;;3.92;2.20;;;;;;;;;;5080378;28;20032;-54
2021/07/29 11:11:48;;;;;;;2.72;2.10;;;;;;;;;;5080485;28;20115;-54
2021/07/29 11:14:15;;;;;;;4.57;2.20;;;;;;;;;;5079792;28;20031;-54
2021/07/29 11:16:41;;;;;;;4.88;2.88;;;;;;;;;;5081073;28;20025;-54
2021/07/29 11:19:07;;;;;;;5.03;2.33;;;;;;;;;;5081424;28;20030;-53
2021/07/29 11:21:34;;;;;;;11.75;2.90;;;;;;;;;;5080719;28;20024;-53
2021/07/29 11:24:00;;;;;;;15.88;2.97;;;;;;;;;;5083234;28;20020;-53
2021/07/29 11:26:27;;;;;;;3.25;2.13;;;;;;;;;;5080859;28;20062;-53
2021/07/29 11:29:08;;;;;;;4.68;2.60;;;;;;;;;;5083114;28;20461;-53
2021/07/29 11:31:35;;;;;;;3.75;2.58;;;;;;;;;;5073927;28;20024;-52
2021/07/29 11:34:01;;;;;;;5.15;2.10;;;;;;;;;;5080454;28;20027;-53
2021/07/29 11:36:29;;;;;;;3.22;2.20;;;;;;;;;;5080523;28;20036;-52
2021/07/29 11:39:00;;;;;;;4.60;2.58;;;;;;;;;;5080549;28;20028;-53
2021/07/29 11:41:26;;;;;;;3.47;2.33;;;;;;;;;;5079347;28;20024;-53
2021/07/29 11:43:56;;;;;;;4.25;2.35;;;;;;;;;;5080918;28;20027;-53
2021/07/29 11:46:22;;;;;;;5.32;2.15;;;;;;;;;;5079945;28;20021;-53
2021/07/29 11:49:00;;;;;;;4.28;1.80;;;;;;;;;;5081137;28;20440;-53
2021/07/29 11:51:26;;;;;;;2.15;1.60;;;;;;;;;;5077706;28;20035;-53
2021/07/29 11:53:52;;;;;;;2.35;1.88;;;;;;;;;;5081096;28;20024;-53
2021/07/29 11:56:18;;;;;;;3.63;2.50;;;;;;;;;;5080232;28;20089;-53
2021/07/29 11:58:56;;;;;;;3.03;2.08;;;;;;;;;;5080823;28;20366;-53
2021/07/29 12:01:22;;;;;;;3.13;1.83;;;;;;;;;;5078030;28;20092;-53
2021/07/29 12:03:49;;;;;;;3.20;2.42;;;;;;;;;;5079809;28;20426;-53
2021/07/29 12:06:16;;;;;;;4.13;2.38;;;;;;;;;;5081220;28;20028;-52
2021/07/29 12:08:43;;;;;;;2.42;1.63;;;;;;;;;;5082499;28;20024;-53
2021/07/29 12:11:10;;;;;;;2.47;1.70;;;;;;;;;;5084771;28;20024;-53
2021/07/29 12:13:42;;;;;;;5.32;1.95;;;;;;;;;;5083162;28;20081;-53
2021/07/29 12:16:08;;;;;;;2.20;1.55;;;;;;;;;;5092415;28;20371;-53
2021/07/29 12:18:34;;;;;;;5.00;2.42;;;;;;;;;;5092467;28;20024;-52
2021/07/29 12:21:01;;;;;;;4.13;2.00;;;;;;;;;;5092104;28;20085;-53
2021/07/29 12:23:27;;;;;;;3.00;1.67;;;;;;;;;;5082195;28;20105;-52
2021/07/29 12:25:54;;;;;;;2.13;1.48;;;;;;;;;;5083102;28;20024;-52
2021/07/29 12:28:39;;;;;;;5.65;2.38;;;;;;;;;;5087984;28;20043;-54
2021/07/29 12:31:18;;;;;;;2.50;1.95;;;;;;;;;;5091483;28;20110;-52
2021/07/29 12:33:47;;;;;;;3.55;2.20;;;;;;;;;;5077810;28;20012;-53
2021/07/29 12:36:13;;;;;;;4.40;2.08;;;;;;;;;;5090169;28;20036;-53
2021/07/29 12:38:39;;;;;;;6.80;1.92;;;;;;;;;;5087586;28;20028;-53
2021/07/29 12:41:06;;;;;;;3.35;2.17;;;;;;;;;;5085462;28;20085;-53
2021/07/29 12:43:33;;;;;;;6.70;2.80;;;;;;;;;;5092148;28;20426;-51
2021/07/29 12:46:00;;;;;;;30.38;5.22;;;;;;;;;;5091797;28;20032;-51
2021/07/29 12:48:27;;;;;;;8.13;3.22;;;;;;;;;;5092644;28;20027;-51
2021/07/29 12:50:54;;;;;;;4.22;2.35;;;;;;;;;;5086654;28;20355;-51
2021/07/29 12:53:20;;;;;;;7.45;2.35;;;;;;;;;;5085311;28;20426;-51
2021/07/29 12:55:47;;;;;;;5.32;2.25;;;;;;;;;;5091658;28;20040;-51
2021/07/29 12:58:14;;;;;;;3.38;2.58;;;;;;;;;;5094374;28;20023;-51
2021/07/29 13:00:44;;;;;;;8.35;2.25;;;;;;;;;;5095369;28;20034;-51
2021/07/29 13:03:10;;;;;;;;;;;;;;;;;;5080334;28;20027;-51
2021/07/29 13:05:36;;;;;;;4.35;2.33;;;;;;;;;;5093058;28;19904;-51
2021/07/29 13:08:02;;;;;;;4.07;2.63;;;;;;;;;;5075587;28;20033;-51
2021/07/29 13:10:28;;;;;;;4.93;2.60;;;;;;;;;;5075399;28;20517;-51
2021/07/29 13:12:57;;;;;;;5.55;2.70;;;;;;;;;;5075040;28;20082;-51
2021/07/29 13:15:23;;;;;;;3.65;2.20;;;;;;;;;;5075533;28;20041;-52
2021/07/29 13:17:49;;;;;;;5.72;3.28;;;;;;;;;;5075507;28;20025;-51
2021/07/29 13:20:15;;;;;;;3.80;2.70;;;;;;;;;;5075559;28;20345;-51
2021/07/29 13:22:42;;;;;;;2.58;2.03;;;;;;;;;;5075116;28;20024;-51
2021/07/29 13:25:08;;;;;;;4.82;2.47;;;;;;;;;;5074894;28;20032;-51
2021/07/29 13:27:34;;;;;;;2.45;1.75;;;;;;;;;;5075161;28;20017;-51
2021/07/29 13:30:00;;;;;;;4.05;2.40;;;;;;;;;;5075369;28;20025;-51
2021/07/29 13:32:26;;;;;;;2.20;1.88;;;;;;;;;;5074535;28;20056;-52
2021/07/29 13:34:52;;;;;;;2.85;1.77;;;;;;;;;;5075097;28;20338;-51
2021/07/29 13:37:18;;;;;;;2.72;1.90;;;;;;;;;;5075071;28;20028;-51
2021/07/29 13:39:44;;;;;;;3.03;1.73;;;;;;;;;;5074613;28;20029;-51
2021/07/29 13:42:10;;;;;;;5.90;2.45;;;;;;;;;;5073957;28;20115;-51
2021/07/29 13:44:42;;;;;;;4.95;2.45;;;;;;;;;;5075352;28;20024;-51
2021/07/29 13:47:08;;;;;;;3.35;1.80;;;;;;;;;;5074913;28;20025;-51
2021/07/29 13:49:34;;;;;;;4.80;1.70;;;;;;;;;;5075027;28;20017;-51
2021/07/29 13:52:01;;;;;;;4.72;2.22;;;;;;;;;;5073601;28;20480;-51
2021/07/29 13:54:27;;;;;;;13.98;2.45;;;;;;;;;;5074884;28;20029;-52
2021/07/29 13:56:53;;;;;;;7.68;2.45;;;;;;;;;;5075156;28;20454;-52
2021/07/29 13:59:19;;;;;;;5.45;2.65;;;;;;;;;;5074629;28;20028;-52
2021/07/29 14:01:45;;;;;;;4.47;2.85;;;;;;;;;;5073738;28;20426;-52
2021/07/29 14:04:12;;;;;;;3.95;2.55;;;;;;;;;;5074735;28;20028;-52
2021/07/29 14:06:37;;;;;;;6.15;2.28;;;;;;;;;;5074947;28;20044;-52
2021/07/29 14:09:04;;;;;;;5.93;2.85;;;;;;;;;;5073209;28;20150;-52
2021/07/29 14:11:30;;;;;;;4.10;2.63;;;;;;;;;;5073960;28;20445;-52
2021/07/29 14:13:57;;;;;;;4.82;2.55;;;;;;;;;;5074281;28;20056;-52
2021/07/29 14:16:23;;;;;;;4.78;2.30;;;;;;;;;;5074340;28;20406;-52
2021/07/29 14:18:51;;;;;;;8.98;2.70;;;;;;;;;;5073894;28;20548;-52
2021/07/29 14:24:04;;;;;;;3.95;2.17;;;;;;;;;;5050666;28;20024;-52
2021/07/29 14:26:30;;;;;;;6.32;3.00;;;;;;;;;;5092696;28;20388;-52
2021/07/29 14:28:56;;;;;;;5.80;2.47;;;;;;;;;;5081521;28;20120;-51
2021/07/29 14:31:22;;;;;;;4.82;2.60;;;;;;;;;;5072908;28;20052;-52
2021/07/29 14:33:48;;;;;;;2.47;2.10;;;;;;;;;;5073026;28;20105;-52
2021/07/29 14:36:14;;;;;;;5.00;2.60;;;;;;;;;;5073950;28;20040;-52
2021/07/29 14:38:41;;;;;;;5.65;2.63;;;;;;;;;;5073965;28;20020;-52
2021/07/29 14:41:07;;;;;;;4.35;2.55;;;;;;;;;;5079811;28;20032;-52
2021/07/29 14:43:34;;;;;;;3.47;2.03;;;;;;;;;;5073415;28;20012;-52
2021/07/29 14:49:00;;;;;;;5.88;2.28;;;;;;;;;;5082252;28;20021;-52
2021/07/29 14:51:26;;;;;;;4.07;2.60;;;;;;;;;;5080945;28;20110;-52